createdAt,value
2022-11-08T00:00:43.262Z,9.60
2022-11-08T00:03:11.271Z,9.60
2022-11-08T00:05:56.912Z,9.60
2022-11-08T00:08:42.498Z,9.60
2022-11-08T00:11:29.398Z,9.60
2022-11-08T00:14:00.305Z,9.60
2022-11-08T00:16:28.553Z,9.50
2022-11-08T00:18:56.520Z,9.50
2022-11-08T00:21:24.461Z,9.40
2022-11-08T00:23:52.374Z,9.40
2022-11-08T00:26:21.709Z,9.40
2022-11-08T00:28:49.754Z,9.40
2022-11-08T00:31:17.692Z,9.40
2022-11-08T00:33:45.579Z,9.30
2022-11-08T00:36:13.506Z,9.20
2022-11-08T00:38:43.597Z,9.30
2022-11-08T00:41:11.684Z,9.20
2022-11-08T00:43:41.096Z,9.20
2022-11-08T00:46:09.306Z,9.30
2022-11-08T00:48:37.426Z,9.20
2022-11-08T00:51:06.747Z,9.20
2022-11-08T00:53:35.269Z,9.20
2022-11-08T00:56:07.683Z,9.20
2022-11-08T00:58:36.021Z,9.10
2022-11-08T01:01:11.524Z,9.20
2022-11-08T01:03:39.735Z,9.20
2022-11-08T01:06:09.394Z,9.10
2022-11-08T01:08:37.881Z,9.10
2022-11-08T01:11:08.391Z,9.20
2022-11-08T01:13:37.051Z,9.10
2022-11-08T01:16:08.847Z,9.20
2022-11-08T01:18:38.403Z,9.20
2022-11-08T01:21:07.262Z,9.20
2022-11-08T01:23:35.780Z,9.20
2022-11-08T01:26:05.899Z,9.20
2022-11-08T01:28:34.226Z,9.20
2022-11-08T01:31:05.801Z,9.20
2022-11-08T01:33:33.896Z,9.20
2022-11-08T01:36:03.282Z,9.10
2022-11-08T01:38:31.221Z,9.10
2022-11-08T01:40:59.145Z,9.10
2022-11-08T01:43:35.780Z,9.10
2022-11-08T01:46:32.405Z,9.10
2022-11-08T01:49:25.645Z,9.00
2022-11-08T01:52:01.252Z,9.00
2022-11-08T01:54:43.579Z,9.00
2022-11-08T01:57:17.579Z,8.90
2022-11-08T01:59:48.506Z,8.90
2022-11-08T02:02:16.744Z,8.80
2022-11-08T02:04:45.052Z,8.80
2022-11-08T02:07:14.938Z,8.70
2022-11-08T02:09:46.638Z,8.70
2022-11-08T02:12:16.691Z,8.80
2022-11-08T02:14:44.818Z,8.70
2022-11-08T02:17:12.896Z,8.70
2022-11-08T02:19:43.741Z,8.80
2022-11-08T02:22:20.161Z,8.70
2022-11-08T02:24:49.480Z,8.70
2022-11-08T02:27:17.487Z,8.70
2022-11-08T02:29:45.474Z,8.70
2022-11-08T02:32:13.711Z,8.60
2022-11-08T02:34:45.818Z,8.70
2022-11-08T02:37:17.378Z,8.50
2022-11-08T02:39:46.355Z,8.40
2022-11-08T02:42:16.809Z,8.40
2022-11-08T02:44:44.724Z,8.40
2022-11-08T02:47:12.710Z,8.50
2022-11-08T02:49:40.860Z,8.50
2022-11-08T02:52:08.928Z,8.50
2022-11-08T02:54:36.940Z,8.40
2022-11-08T02:57:04.915Z,8.40
2022-11-08T02:59:34.227Z,8.40
2022-11-08T03:02:02.288Z,8.50
2022-11-08T03:04:30.382Z,8.40
2022-11-08T03:06:58.355Z,8.40
2022-11-08T03:09:27.075Z,8.40
2022-11-08T03:11:55.179Z,8.30
2022-11-08T03:14:23.592Z,8.30
2022-11-08T03:16:53.235Z,8.30
2022-11-08T03:19:21.146Z,8.20
2022-11-08T03:21:49.059Z,8.20
2022-11-08T03:24:17.232Z,8.10
2022-11-08T03:26:45.231Z,8.10
2022-11-08T03:29:13.174Z,8.10
2022-11-08T03:31:41.246Z,8.10
2022-11-08T03:34:11.682Z,8.00
2022-11-08T03:36:39.747Z,8.00
2022-11-08T03:39:07.878Z,8.00
2022-11-08T03:41:36.093Z,7.90
2022-11-08T03:44:04.134Z,7.90
2022-11-08T03:46:32.141Z,7.90
2022-11-08T03:49:00.139Z,7.80
2022-11-08T03:51:29.446Z,7.80
2022-11-08T03:53:57.396Z,7.80
2022-11-08T03:56:25.692Z,7.70
2022-11-08T03:58:53.760Z,7.70
2022-11-08T04:01:21.803Z,7.70
2022-11-08T04:03:49.784Z,7.80
2022-11-08T04:06:17.802Z,7.70
2022-11-08T04:08:47.120Z,7.80
2022-11-08T04:11:32.922Z,7.80
2022-11-08T04:14:18.367Z,7.70
2022-11-08T04:16:46.356Z,7.70
2022-11-08T04:19:32.051Z,7.70
2022-11-08T04:22:00.259Z,7.70
2022-11-08T04:24:29.672Z,7.70
2022-11-08T04:26:57.648Z,7.70
2022-11-08T04:29:25.662Z,7.80
2022-11-08T04:31:53.640Z,7.80
2022-11-08T04:34:21.700Z,7.70
2022-11-08T04:36:49.627Z,7.70
2022-11-08T04:39:17.768Z,7.70
2022-11-08T04:41:46.992Z,7.70
2022-11-08T04:44:15.628Z,7.80
2022-11-08T04:46:43.597Z,7.80
2022-11-08T04:49:11.503Z,7.80
2022-11-08T04:51:39.474Z,7.80
2022-11-08T04:54:07.831Z,7.70
2022-11-08T04:56:36.026Z,7.60
2022-11-08T04:59:10.801Z,7.60
2022-11-08T05:01:39.936Z,7.60
2022-11-08T05:04:08.125Z,7.60
2022-11-08T05:06:36.110Z,7.50
2022-11-08T05:09:04.128Z,7.50
2022-11-08T05:11:32.933Z,7.50
2022-11-08T05:14:01.119Z,7.50
2022-11-08T05:16:32.353Z,7.60
2022-11-08T05:19:00.503Z,7.50
2022-11-08T05:21:46.236Z,7.60
2022-11-08T05:24:16.547Z,7.60
2022-11-08T05:26:46.400Z,7.60
2022-11-08T05:29:15.933Z,7.50
2022-11-08T05:31:45.275Z,7.50
2022-11-08T05:34:13.321Z,7.50
2022-11-08T05:36:41.309Z,7.40
2022-11-08T05:39:09.302Z,7.40
2022-11-08T05:41:37.202Z,7.40
2022-11-08T05:44:05.243Z,7.30
2022-11-08T05:46:33.284Z,7.30
2022-11-08T05:49:03.016Z,7.30
2022-11-08T05:51:32.448Z,7.30
2022-11-08T05:54:00.374Z,7.20
2022-11-08T05:56:28.355Z,7.30
2022-11-08T05:58:56.470Z,7.30
2022-11-08T06:01:24.590Z,7.30
2022-11-08T06:03:52.573Z,7.30
2022-11-08T06:06:22.850Z,7.20
2022-11-08T06:08:52.199Z,7.20
2022-11-08T06:11:22.572Z,7.20
2022-11-08T06:13:51.230Z,7.20
2022-11-08T06:16:20.646Z,7.20
2022-11-08T06:18:48.858Z,7.20
2022-11-08T06:21:18.726Z,7.20
2022-11-08T06:23:48.064Z,7.20
2022-11-08T06:26:16.076Z,7.30
2022-11-08T06:28:44.086Z,7.40
2022-11-08T06:31:12.053Z,7.50
2022-11-08T06:33:40.041Z,7.60
2022-11-08T06:36:08.788Z,7.60
2022-11-08T06:38:36.774Z,7.60
2022-11-08T06:41:06.169Z,7.50
2022-11-08T06:43:34.133Z,7.50
2022-11-08T06:46:02.861Z,7.50
2022-11-08T06:48:35.936Z,7.50
2022-11-08T06:51:04.663Z,7.80
2022-11-08T06:53:35.514Z,8.60
2022-11-08T06:56:05.371Z,9.50
2022-11-08T06:58:33.466Z,10.30
2022-11-08T07:01:04.925Z,10.90
2022-11-08T07:03:32.947Z,11.50
2022-11-08T07:06:02.632Z,12.00
2022-11-08T07:08:30.898Z,12.20
2022-11-08T07:10:59.218Z,12.20
2022-11-08T07:13:28.823Z,12.50
2022-11-08T07:15:59.454Z,11.90
2022-11-08T07:18:28.437Z,11.30
2022-11-08T07:21:00.323Z,11.30
2022-11-08T07:23:29.087Z,11.40
2022-11-08T07:26:16.298Z,11.70
2022-11-08T07:28:45.712Z,11.60
2022-11-08T07:31:13.914Z,11.70
2022-11-08T07:33:48.014Z,12.40
2022-11-08T07:36:16.350Z,13.60
2022-11-08T07:38:44.374Z,14.70
2022-11-08T07:41:12.734Z,15.50
2022-11-08T07:43:40.721Z,16.30
2022-11-08T07:46:13.556Z,16.90
2022-11-08T07:48:41.569Z,17.10
2022-11-08T07:51:09.909Z,17.20
2022-11-08T07:53:37.916Z,17.40
2022-11-08T07:56:06.334Z,17.80
2022-11-08T07:58:34.529Z,18.10
2022-11-08T08:01:03.389Z,18.40
2022-11-08T08:03:33.118Z,18.90
2022-11-08T08:06:01.772Z,19.30
2022-11-08T08:08:31.006Z,19.70
2022-11-08T08:11:00.496Z,19.20
2022-11-08T08:13:28.815Z,18.30
2022-11-08T08:15:59.936Z,17.70
2022-11-08T08:18:28.035Z,17.50
2022-11-08T08:20:57.507Z,17.40
2022-11-08T08:23:25.599Z,17.70
2022-11-08T08:25:53.986Z,18.30
2022-11-08T08:28:22.087Z,19.10
2022-11-08T08:30:50.153Z,20.00
2022-11-08T08:33:28.371Z,20.60
2022-11-08T08:36:01.161Z,20.40
2022-11-08T08:38:30.099Z,19.90
2022-11-08T08:40:58.800Z,19.10
2022-11-08T08:43:27.764Z,19.10
2022-11-08T08:45:55.970Z,19.10
2022-11-08T08:48:24.125Z,19.10
2022-11-08T08:50:52.246Z,18.10
2022-11-08T08:53:22.178Z,16.90
2022-11-08T08:55:52.517Z,16.10
2022-11-08T08:58:20.772Z,15.80
2022-11-08T09:03:37.349Z,15.40
2022-11-08T09:06:06.060Z,15.00
2022-11-08T09:08:35.426Z,14.90
2022-11-08T09:11:03.601Z,16.10
2022-11-08T09:13:32.451Z,17.60
2022-11-08T09:16:02.829Z,18.70
2022-11-08T09:18:31.243Z,18.50
2022-11-08T09:20:59.572Z,17.80
2022-11-08T09:23:27.919Z,18.30
2022-11-08T09:26:01.272Z,19.10
2022-11-08T09:28:31.662Z,18.90
2022-11-08T09:31:08.404Z,18.00
2022-11-08T09:33:37.076Z,16.90
2022-11-08T09:36:06.654Z,16.20
2022-11-08T09:38:35.332Z,16.30
2022-11-08T09:41:28.626Z,17.00
2022-11-08T09:44:29.497Z,17.50
2022-11-08T09:46:59.999Z,18.20
2022-11-08T09:49:31.738Z,19.10
2022-11-08T09:52:01.255Z,19.50
2022-11-08T09:54:34.421Z,19.70
2022-11-08T09:57:05.348Z,19.20
2022-11-08T09:59:39.460Z,18.80
2022-11-08T10:02:17.613Z,19.10
2022-11-08T10:04:55.989Z,19.20
2022-11-08T10:07:31.737Z,18.70
2022-11-08T10:10:27.980Z,18.70
2022-11-08T10:13:06.053Z,18.90
2022-11-08T10:15:43.513Z,18.40
2022-11-08T10:18:35.713Z,18.10
2022-11-08T10:21:09.121Z,17.80
2022-11-08T10:23:45.221Z,17.70
2022-11-08T10:26:24.120Z,18.20
2022-11-08T10:29:00.248Z,18.80
2022-11-08T10:31:33.054Z,18.70
2022-11-08T10:34:03.084Z,18.30
2022-11-08T10:36:38.505Z,18.60
2022-11-08T10:39:14.985Z,18.20
2022-11-08T10:41:48.111Z,17.60
2022-11-08T10:44:21.269Z,17.70
2022-11-08T10:46:51.074Z,18.00
2022-11-08T10:49:22.202Z,18.30
2022-11-08T10:51:53.152Z,18.40
2022-11-08T10:54:44.066Z,17.90
2022-11-08T10:57:24.830Z,17.10
2022-11-08T11:00:46.984Z,16.90
2022-11-08T11:03:30.512Z,17.20
2022-11-08T11:06:05.328Z,17.90
2022-11-08T11:08:33.844Z,18.30
2022-11-08T11:11:23.636Z,18.70
2022-11-08T11:14:07.772Z,19.10
2022-11-08T11:16:38.792Z,19.40
2022-11-08T11:19:14.211Z,19.50
2022-11-08T11:21:45.275Z,19.70
2022-11-08T11:24:19.492Z,19.90
2022-11-08T11:26:51.067Z,20.00
2022-11-08T11:29:23.192Z,19.90
2022-11-08T11:31:54.271Z,19.80
2022-11-08T11:34:45.381Z,19.60
2022-11-08T11:37:21.829Z,19.40
2022-11-08T11:39:58.639Z,19.00
2022-11-08T11:42:45.266Z,18.90
2022-11-08T11:45:19.887Z,19.00
2022-11-08T11:47:53.689Z,19.10
2022-11-08T11:50:32.832Z,18.60
2022-11-08T11:53:04.759Z,17.80
2022-11-08T11:55:45.668Z,17.20
2022-11-08T11:58:26.870Z,17.30
2022-11-08T12:01:00.828Z,17.50
2022-11-08T12:03:47.055Z,17.80
2022-11-08T12:06:29.185Z,18.00
2022-11-08T12:09:19.549Z,17.60
2022-11-08T12:11:59.630Z,17.20
2022-11-08T12:14:58.197Z,16.90
2022-11-08T12:17:49.675Z,16.60
2022-11-08T12:20:31.186Z,16.50
2022-11-08T12:23:14.480Z,16.50
2022-11-08T12:25:52.150Z,16.40
2022-11-08T12:28:42.293Z,16.40
2022-11-08T12:31:22.752Z,16.20
2022-11-08T12:34:18.373Z,16.20
2022-11-08T12:37:02.982Z,16.10
2022-11-08T12:39:36.195Z,16.00
2022-11-08T12:42:27.283Z,16.00
2022-11-08T12:45:19.886Z,15.90
2022-11-08T12:47:56.949Z,15.80
2022-11-08T12:50:34.384Z,15.70
2022-11-08T13:00:09.481Z,15.50
2022-11-08T13:02:40.043Z,15.50
2022-11-08T13:05:14.413Z,15.50
2022-11-08T13:07:48.649Z,15.50
2022-11-08T13:10:27.930Z,15.70
2022-11-08T13:13:09.645Z,15.50
2022-11-08T13:16:08.738Z,15.60
2022-11-08T13:18:43.546Z,15.70
2022-11-08T13:21:40.293Z,15.70
2022-11-08T13:24:44.409Z,15.50
2022-11-08T13:27:24.677Z,15.40
2022-11-08T13:29:53.751Z,15.40
2022-11-08T13:32:53.650Z,15.30
2022-11-08T13:35:26.954Z,15.20
2022-11-08T13:38:08.894Z,15.20
2022-11-08T13:40:44.817Z,15.20
2022-11-08T13:43:24.614Z,15.10
2022-11-08T13:45:52.807Z,15.10
2022-11-08T13:48:37.589Z,15.10
2022-11-08T13:51:28.682Z,15.10
2022-11-08T13:54:01.260Z,15.20
2022-11-08T13:56:48.601Z,15.20
2022-11-08T13:59:49.863Z,15.20
2022-11-08T14:02:40.484Z,15.20
2022-11-08T14:05:26.954Z,15.20
2022-11-08T14:08:21.243Z,15.20
2022-11-08T14:11:29.173Z,15.30
2022-11-08T14:14:42.595Z,15.30
2022-11-08T14:17:33.992Z,15.30
2022-11-08T14:20:32.458Z,15.20
2022-11-08T14:23:13.783Z,15.20
2022-11-08T14:25:43.696Z,15.20
2022-11-08T14:28:24.738Z,15.20
2022-11-08T14:30:53.489Z,15.10
2022-11-08T14:33:23.209Z,15.10
2022-11-08T14:35:59.738Z,15.10
2022-11-08T14:38:30.973Z,15.00
2022-11-08T14:41:01.238Z,15.10
2022-11-08T14:43:30.318Z,15.10
2022-11-08T14:45:59.049Z,15.10
2022-11-08T14:48:31.535Z,15.10
2022-11-08T14:51:00.656Z,15.10
2022-11-08T14:53:32.153Z,15.10
2022-11-08T14:56:13.544Z,14.90
2022-11-08T14:58:41.773Z,15.00
2022-11-08T15:01:16.407Z,14.90
2022-11-08T15:03:48.884Z,14.80
2022-11-08T15:06:17.063Z,14.80
2022-11-08T15:08:52.735Z,14.80
2022-11-08T15:11:35.879Z,14.70
2022-11-08T15:14:06.252Z,14.70
2022-11-08T15:16:50.585Z,14.70
2022-11-08T15:19:29.917Z,14.60
2022-11-08T15:22:01.393Z,14.50
2022-11-08T15:24:37.867Z,14.50
2022-11-08T15:27:21.890Z,14.40
2022-11-08T15:30:03.947Z,14.40
2022-11-08T15:32:40.459Z,14.30
2022-11-08T15:35:20.839Z,14.30
2022-11-08T15:37:50.690Z,14.20
2022-11-08T15:40:22.583Z,14.10
2022-11-08T15:42:53.470Z,14.10
2022-11-08T15:45:26.035Z,14.10
2022-11-08T15:48:02.279Z,14.10
2022-11-08T15:50:31.363Z,14.10
2022-11-08T15:53:06.225Z,14.10
2022-11-08T15:55:39.612Z,14.10
2022-11-08T15:58:16.321Z,14.10
2022-11-08T16:00:47.918Z,14.00
2022-11-08T16:03:16.219Z,14.00
2022-11-08T16:05:44.483Z,14.00
2022-11-08T16:08:17.033Z,14.00
2022-11-08T16:10:54.041Z,13.90
2022-11-08T16:13:25.799Z,13.90
2022-11-08T16:15:53.779Z,13.90
2022-11-08T16:18:22.162Z,13.80
2022-11-08T16:20:50.241Z,13.70
2022-11-08T16:23:18.409Z,13.70
2022-11-08T16:25:47.447Z,13.70
2022-11-08T16:28:23.074Z,13.70
2022-11-08T16:30:51.374Z,13.60
2022-11-08T16:33:21.151Z,13.50
2022-11-08T16:35:49.629Z,13.40
2022-11-08T16:38:22.202Z,13.40
2022-11-08T16:40:50.145Z,13.40
2022-11-08T16:43:19.545Z,13.40
2022-11-08T16:48:37.081Z,13.30
2022-11-08T16:51:07.160Z,13.30
2022-11-08T16:53:37.687Z,13.30
2022-11-08T16:56:05.887Z,13.20
2022-11-08T16:58:35.210Z,13.30
2022-11-08T17:01:10.247Z,13.20
2022-11-08T17:03:38.675Z,13.20
2022-11-08T17:06:07.369Z,13.20
2022-11-08T17:08:35.326Z,13.00
2022-11-08T17:11:03.246Z,13.10
2022-11-08T17:13:34.939Z,13.10
2022-11-08T17:16:07.544Z,13.10
2022-11-08T17:18:35.569Z,13.10
2022-11-08T17:21:29.966Z,13.10
2022-11-08T17:23:54.101Z,13.10
2022-11-08T17:26:22.559Z,13.10
2022-11-08T17:28:50.552Z,13.10
2022-11-08T17:31:20.369Z,13.00
2022-11-08T17:33:48.341Z,13.00
2022-11-08T17:36:16.291Z,13.00
2022-11-08T17:38:44.689Z,13.00
2022-11-08T17:41:15.103Z,13.00
2022-11-08T17:43:44.318Z,12.90
2022-11-08T17:46:17.052Z,12.90
2022-11-08T17:48:48.757Z,12.80
2022-11-08T17:51:16.895Z,12.80
2022-11-08T17:53:45.312Z,12.80
2022-11-08T17:56:13.311Z,12.80
2022-11-08T17:58:42.047Z,12.80
2022-11-08T18:01:10.844Z,12.80
2022-11-08T18:03:39.055Z,12.70
2022-11-08T18:06:11.544Z,12.70
2022-11-08T18:08:40.033Z,12.60
2022-11-08T18:11:08.104Z,12.60
2022-11-08T18:13:36.698Z,12.60
2022-11-08T18:16:10.537Z,12.50
2022-11-08T18:18:38.996Z,12.50
2022-11-08T18:21:09.527Z,12.30
2022-11-08T18:23:40.164Z,12.40
2022-11-08T18:26:08.551Z,12.30
2022-11-08T18:28:37.995Z,12.40
2022-11-08T18:31:07.980Z,12.30
2022-11-08T18:33:37.318Z,12.30
2022-11-08T18:36:06.210Z,12.30
2022-11-08T18:38:38.984Z,12.20
2022-11-08T18:41:07.236Z,12.20
2022-11-08T18:43:35.360Z,12.20
2022-11-08T18:46:05.039Z,12.10
2022-11-08T18:48:35.574Z,12.10
2022-11-08T18:51:08.433Z,12.10
2022-11-08T18:53:38.476Z,12.10
2022-11-08T18:56:07.252Z,12.10
2022-11-08T18:58:35.677Z,12.10
2022-11-08T19:01:04.132Z,12.00
2022-11-08T19:03:33.308Z,12.00
2022-11-08T19:06:01.309Z,12.00
2022-11-08T19:08:30.659Z,12.00
2022-11-08T19:11:02.975Z,11.90
2022-11-08T19:13:46.739Z,11.90
2022-11-08T19:16:17.086Z,11.90
2022-11-08T19:18:47.083Z,11.80
2022-11-08T19:21:20.221Z,11.80
2022-11-08T19:23:49.305Z,11.80
2022-11-08T19:26:21.516Z,11.80
2022-11-08T19:28:50.805Z,11.70
2022-11-08T19:31:20.189Z,11.70
2022-11-08T19:33:49.248Z,11.70
2022-11-08T19:36:19.170Z,11.60
2022-11-08T19:38:47.894Z,11.70
2022-11-08T19:41:19.156Z,11.70
2022-11-08T19:43:48.078Z,11.70
2022-11-08T19:46:18.326Z,11.70
2022-11-08T19:48:48.695Z,11.70
2022-11-08T19:51:21.224Z,11.80
2022-11-08T19:53:49.426Z,11.80
2022-11-08T19:56:29.170Z,11.80
2022-11-08T19:59:11.372Z,11.80
2022-11-08T20:01:40.208Z,11.80
2022-11-08T20:04:11.876Z,11.80
2022-11-08T20:06:40.713Z,11.80
2022-11-08T20:09:09.259Z,11.80
2022-11-08T20:11:40.480Z,11.80
2022-11-08T20:14:09.471Z,11.80
2022-11-08T20:16:40.109Z,11.80
2022-11-08T20:19:10.058Z,11.70
2022-11-08T20:21:45.884Z,11.70
2022-11-08T20:24:15.247Z,11.70
2022-11-08T20:26:45.154Z,11.70
2022-11-08T20:29:14.663Z,11.70
2022-11-08T20:31:42.853Z,11.70
2022-11-08T20:34:12.992Z,11.70
2022-11-08T20:36:41.853Z,11.60
2022-11-08T20:39:10.836Z,11.60
2022-11-08T20:41:41.265Z,11.60
2022-11-08T20:44:11.416Z,11.50
2022-11-08T20:46:39.832Z,11.50
2022-11-08T20:49:08.140Z,11.50
2022-11-08T20:51:36.514Z,11.50
2022-11-08T20:54:04.936Z,11.40
2022-11-08T20:56:33.236Z,11.40
2022-11-08T20:59:01.188Z,11.40
2022-11-08T21:01:32.831Z,11.40
2022-11-08T21:04:01.585Z,11.40
2022-11-08T21:06:35.632Z,11.30
2022-11-08T21:09:29.650Z,11.30
2022-11-08T21:11:58.224Z,11.30
2022-11-08T21:14:28.480Z,11.30
2022-11-08T21:17:20.750Z,11.30
2022-11-08T21:19:48.368Z,11.30
2022-11-08T21:22:16.376Z,11.30
2022-11-08T21:24:45.598Z,11.30
2022-11-08T21:27:13.763Z,11.30
2022-11-08T21:29:41.689Z,11.30
2022-11-08T21:32:10.941Z,11.30
2022-11-08T21:34:45.257Z,11.30
2022-11-08T21:37:13.641Z,11.30
2022-11-08T21:39:41.744Z,11.20
2022-11-08T21:42:09.652Z,11.20
2022-11-08T21:44:37.532Z,11.10
2022-11-08T21:47:05.491Z,11.10
2022-11-08T21:49:34.761Z,11.20
2022-11-08T21:52:03.617Z,11.10
2022-11-08T21:54:31.946Z,11.10
2022-11-08T21:56:59.851Z,11.20
2022-11-08T21:59:27.811Z,11.10
2022-11-08T22:01:55.785Z,11.10
2022-11-08T22:04:23.719Z,11.10
2022-11-08T22:06:53.264Z,11.10
2022-11-08T22:09:21.322Z,11.10
2022-11-08T22:11:49.341Z,11.10
2022-11-08T22:14:17.268Z,11.10
2022-11-08T22:16:45.194Z,11.10
2022-11-08T22:19:13.572Z,11.10
2022-11-08T22:21:43.387Z,11.10
2022-11-08T22:24:14.602Z,11.00
2022-11-08T22:26:42.863Z,11.10
2022-11-08T22:29:11.140Z,11.10
2022-11-08T22:31:39.275Z,11.00
2022-11-08T22:34:08.968Z,11.00
2022-11-08T22:36:44.108Z,11.00
2022-11-08T22:39:16.690Z,11.00
2022-11-08T22:41:45.546Z,11.00
2022-11-08T22:44:14.420Z,11.00
2022-11-08T22:46:42.664Z,11.10
2022-11-08T22:49:11.226Z,11.10
2022-11-08T22:51:39.601Z,11.10
2022-11-08T22:54:08.198Z,11.10
2022-11-08T22:56:38.341Z,11.10
2022-11-08T22:59:06.715Z,11.10
2022-11-08T23:01:35.123Z,11.20
2022-11-08T23:04:03.374Z,11.20
2022-11-08T23:06:31.393Z,11.10
2022-11-08T23:08:59.457Z,11.20
2022-11-08T23:11:45.100Z,11.20
2022-11-08T23:14:36.862Z,11.10
2022-11-08T23:17:07.221Z,11.10
2022-11-08T23:19:52.704Z,11.00
2022-11-08T23:22:40.412Z,11.00
2022-11-08T23:25:09.171Z,11.00
2022-11-08T23:27:54.537Z,10.90
2022-11-08T23:30:41.363Z,11.00
2022-11-08T23:33:09.324Z,10.90
2022-11-08T23:35:37.400Z,10.80
2022-11-08T23:38:05.343Z,10.90
2022-11-08T23:40:51.193Z,10.90
2022-11-08T23:43:37.882Z,10.90
2022-11-08T23:46:09.028Z,11.00
2022-11-08T23:48:38.022Z,10.90
2022-11-08T23:51:07.188Z,10.90
2022-11-08T23:53:37.263Z,10.90
2022-11-08T23:56:06.186Z,10.90
2022-11-08T23:58:34.819Z,10.90
